createdAt,value
2022-08-23T00:00:50.046Z,20.600000
2022-08-23T00:05:25.970Z,20.522222
2022-08-23T00:10:25.977Z,20.409091
2022-08-23T00:15:26.023Z,20.400000
2022-08-23T00:20:39.451Z,20.423077
2022-08-23T00:25:26.017Z,20.455556
2022-08-23T00:30:26.228Z,20.500000
2022-08-23T00:35:27.011Z,20.500000
2022-08-23T00:40:38.214Z,20.500000
2022-08-23T00:45:25.935Z,20.460000
2022-08-23T00:50:26.856Z,20.400000
2022-08-23T00:55:26.016Z,20.400000
2022-08-23T01:00:26.225Z,20.400000
2022-08-23T01:05:26.015Z,20.440000
2022-08-23T01:10:25.990Z,20.560000
2022-08-23T01:15:38.102Z,20.633333
2022-08-23T01:20:27.041Z,20.633333
2022-08-23T01:25:26.009Z,20.600000
2022-08-23T01:30:26.090Z,20.528571
2022-08-23T01:35:32.437Z,20.433333
2022-08-23T01:40:26.057Z,20.400000
2022-08-23T01:45:26.588Z,20.400000
2022-08-23T01:50:26.204Z,20.400000
2022-08-23T01:55:26.100Z,20.400000
2022-08-23T02:00:37.901Z,20.400000
2022-08-23T02:05:25.871Z,20.400000
2022-08-23T02:10:25.945Z,20.400000
2022-08-23T02:15:26.018Z,20.500000
2022-08-23T02:20:25.935Z,20.500000
2022-08-23T02:25:25.961Z,20.500000
2022-08-23T02:30:26.083Z,20.500000
2022-08-23T02:35:38.077Z,20.500000
2022-08-23T02:40:26.391Z,20.500000
2022-08-23T02:45:26.062Z,20.500000
2022-08-23T02:50:26.417Z,20.455556
2022-08-23T02:55:26.067Z,20.472727
2022-08-23T03:00:26.511Z,20.500000
2022-08-23T03:05:26.988Z,20.500000
2022-08-23T03:10:49.988Z,20.500000
2022-08-23T03:15:38.030Z,20.500000
2022-08-23T03:20:26.183Z,20.463636
2022-08-23T03:25:25.989Z,20.500000
2022-08-23T03:30:38.044Z,20.500000
2022-08-23T03:35:26.055Z,20.500000
2022-08-23T03:40:38.130Z,20.500000
2022-08-23T03:45:26.033Z,20.563636
2022-08-23T03:50:26.094Z,20.600000
2022-08-23T03:55:26.111Z,20.600000
2022-08-23T04:00:38.225Z,20.633333
2022-08-23T04:05:26.006Z,20.700000
2022-08-23T04:10:26.002Z,20.700000
2022-08-23T04:15:26.060Z,20.700000
2022-08-23T04:20:26.254Z,20.800000
2022-08-23T04:25:38.149Z,20.800000
2022-08-23T04:30:26.121Z,20.880000
2022-08-23T04:35:26.185Z,20.966667
2022-08-23T04:40:26.293Z,21.036364
2022-08-23T04:45:26.138Z,21.100000
2022-08-23T04:50:26.035Z,21.230769
2022-08-23T04:55:38.162Z,21.340000
2022-08-23T05:00:27.768Z,21.470000
2022-08-23T05:05:26.358Z,21.575000
2022-08-23T05:10:27.125Z,21.663636
2022-08-23T05:15:26.177Z,21.772727
2022-08-23T05:20:26.320Z,21.945455
2022-08-23T05:25:26.101Z,22.122222
2022-08-23T05:30:26.194Z,22.354545
2022-08-23T05:35:26.090Z,22.554545
2022-08-23T05:40:50.325Z,22.700000
2022-08-23T05:45:50.432Z,22.811111
2022-08-23T05:50:38.310Z,23.018182
2022-08-23T05:55:34.722Z,23.363636
2022-08-23T06:00:28.414Z,23.733333
2022-08-23T06:05:26.431Z,24.125000
2022-08-23T06:10:26.182Z,24.425000
2022-08-23T06:15:38.443Z,24.709091
2022-08-23T06:20:26.201Z,24.846154
2022-08-23T06:25:26.246Z,24.827273
2022-08-23T06:30:26.243Z,24.800000
2022-08-23T06:35:39.065Z,24.872727
2022-08-23T06:40:26.362Z,25.000000
2022-08-23T06:45:33.758Z,25.180000
2022-08-23T06:50:26.218Z,25.390000
2022-08-23T06:55:26.472Z,25.670000
2022-08-23T07:00:26.418Z,25.936364
2022-08-23T07:05:26.331Z,26.155556
2022-08-23T07:10:26.426Z,26.300000
2022-08-23T07:15:26.328Z,26.372727
2022-08-23T07:20:26.286Z,26.436364
2022-08-23T07:25:26.224Z,26.557143
2022-08-23T07:30:42.065Z,26.683333
2022-08-23T07:35:26.399Z,26.736364
2022-08-23T07:40:27.829Z,26.800000
2022-08-23T07:45:26.306Z,26.800000
2022-08-23T07:50:30.331Z,26.754545
2022-08-23T07:55:26.701Z,26.708333
2022-08-23T08:00:26.479Z,26.827273
2022-08-23T08:05:26.570Z,26.908333
2022-08-23T08:10:26.362Z,27.000000
2022-08-23T08:15:26.337Z,27.040000
2022-08-23T08:20:26.344Z,27.116667
2022-08-23T08:25:26.511Z,27.300000
2022-08-23T08:30:26.493Z,27.522222
2022-08-23T08:35:26.442Z,27.672727
2022-08-23T08:40:26.420Z,27.642857
2022-08-23T08:45:26.536Z,27.463636
2022-08-23T08:50:26.702Z,27.209091
2022-08-23T08:55:50.266Z,27.050000
2022-08-23T09:00:28.106Z,27.054545
2022-08-23T09:05:26.384Z,27.230000
2022-08-23T09:10:50.621Z,27.325000
2022-08-23T09:15:26.243Z,27.400000
2022-08-23T09:20:29.917Z,27.475000
2022-08-23T09:25:38.565Z,27.772727
2022-08-23T09:30:27.456Z,28.069231
2022-08-23T09:35:26.530Z,28.155556
2022-08-23T09:40:50.611Z,28.000000
2022-08-23T09:45:26.643Z,27.825000
2022-08-23T09:50:26.473Z,27.800000
2022-08-23T09:55:26.539Z,27.833333
2022-08-23T10:00:26.447Z,28.141667
2022-08-23T10:05:26.575Z,28.511111
2022-08-23T10:10:26.377Z,28.700000
2022-08-23T10:15:38.680Z,28.712500
2022-08-23T10:20:27.623Z,28.609091
2022-08-23T10:25:26.442Z,28.600000
2022-08-23T10:30:26.574Z,28.700000
2022-08-23T10:35:26.332Z,28.700000
2022-08-23T10:40:26.678Z,28.608333
2022-08-23T10:45:26.446Z,28.572727
2022-08-23T10:50:26.618Z,28.336364
2022-08-23T10:55:26.417Z,27.925000
2022-08-23T11:00:26.801Z,27.672727
2022-08-23T11:05:26.385Z,27.766667
2022-08-23T11:10:26.457Z,28.158333
2022-08-23T11:15:26.454Z,28.681818
2022-08-23T11:20:38.549Z,28.870000
2022-08-23T11:25:26.666Z,28.500000
2022-08-23T11:30:26.575Z,27.840000
2022-08-23T11:35:43.060Z,27.345455
2022-08-23T11:40:26.699Z,27.154545
2022-08-23T11:45:26.504Z,27.180000
2022-08-23T11:50:38.512Z,27.266667
2022-08-23T11:55:26.785Z,27.355556
2022-08-23T12:00:29.122Z,27.300000
2022-08-23T12:05:26.459Z,27.311111
2022-08-23T12:10:38.591Z,27.741667
2022-08-23T12:15:26.846Z,28.154545
2022-08-23T12:20:26.437Z,28.208333
2022-08-23T12:25:26.419Z,27.970000
2022-08-23T12:30:26.485Z,27.741667
2022-08-23T12:35:26.487Z,27.618182
2022-08-23T12:40:26.561Z,27.700000
2022-08-23T12:45:26.714Z,27.700000
2022-08-23T12:50:32.677Z,27.530000
2022-08-23T12:55:26.607Z,27.245455
2022-08-23T13:00:38.490Z,26.958333
2022-08-23T13:05:26.530Z,26.712500
2022-08-23T13:10:26.852Z,26.725000
2022-08-23T13:15:27.350Z,26.918182
2022-08-23T13:20:26.568Z,27.136364
2022-08-23T13:25:29.716Z,27.254545
2022-08-23T13:30:26.764Z,27.369231
2022-08-23T13:35:26.583Z,27.372727
2022-08-23T13:40:26.784Z,27.400000
2022-08-23T13:45:38.570Z,27.350000
2022-08-23T13:50:26.734Z,27.481818
2022-08-23T13:55:26.572Z,27.700000
2022-08-23T14:00:38.669Z,27.950000
2022-08-23T14:05:26.682Z,28.277778
2022-08-23T14:10:26.670Z,28.500000
2022-08-23T14:16:40.184Z,28.650000
2022-08-23T14:20:43.785Z,28.500000
2022-08-23T14:25:26.517Z,28.290909
2022-08-23T14:30:29.384Z,28.115385
2022-08-23T14:35:26.737Z,27.990000
2022-08-23T14:40:26.730Z,27.900000
2022-08-23T14:45:26.782Z,27.881818
2022-08-23T14:50:27.738Z,27.800000
2022-08-23T14:55:26.757Z,27.712500
2022-08-23T15:00:26.925Z,27.646154
2022-08-23T15:05:27.046Z,27.660000
2022-08-23T15:12:57.422Z,27.600000
2022-08-23T15:15:26.622Z,27.537500
2022-08-23T15:20:27.000Z,27.500000
2022-08-23T15:25:28.190Z,27.400000
2022-08-23T15:30:26.945Z,27.340000
2022-08-23T15:35:26.918Z,27.227273
2022-08-23T15:40:27.200Z,27.125000
2022-08-23T15:45:27.004Z,27.100000
2022-08-23T15:50:26.931Z,27.040000
2022-08-23T15:55:26.825Z,26.971429
2022-08-23T16:00:26.883Z,26.863636
2022-08-23T16:05:26.999Z,26.800000
2022-08-23T16:10:39.153Z,26.800000
2022-08-23T16:15:27.081Z,26.740000
2022-08-23T16:20:26.811Z,26.636364
2022-08-23T16:25:26.793Z,26.490909
2022-08-23T16:30:26.774Z,26.344444
2022-08-23T16:35:27.813Z,26.218182
2022-08-23T16:40:26.785Z,26.090909
2022-08-23T16:45:26.795Z,26.000000
2022-08-23T16:50:26.787Z,25.881818
2022-08-23T16:55:26.999Z,25.754545
2022-08-23T17:00:26.824Z,25.622222
2022-08-23T17:05:26.900Z,25.463636
2022-08-23T17:10:39.211Z,25.341667
2022-08-23T17:15:26.781Z,25.216667
2022-08-23T17:20:26.802Z,25.200000
2022-08-23T17:25:26.826Z,25.200000
2022-08-23T17:30:26.878Z,25.136364
2022-08-23T17:35:26.802Z,25.077778
2022-08-23T17:40:26.958Z,25.000000
2022-08-23T17:45:27.124Z,24.945455
2022-08-23T17:50:27.591Z,24.880000
2022-08-23T17:55:26.965Z,24.800000
2022-08-23T18:00:38.975Z,24.730769
2022-08-23T18:05:26.989Z,24.700000
2022-08-23T18:10:26.922Z,24.669231
2022-08-23T18:15:26.928Z,24.600000
2022-08-23T18:20:51.371Z,24.600000
2022-08-23T18:25:26.930Z,24.600000
2022-08-23T18:30:26.857Z,24.575000
2022-08-23T18:35:27.005Z,24.500000
2022-08-23T18:40:27.141Z,24.500000
2022-08-23T18:45:26.932Z,24.425000
2022-08-23T18:50:26.999Z,24.354545
2022-08-23T18:55:26.890Z,24.277778
2022-08-23T19:00:39.114Z,24.200000
2022-08-23T19:05:42.348Z,24.140000
2022-08-23T19:10:38.948Z,24.100000
2022-08-23T19:15:27.286Z,24.050000
2022-08-23T19:20:26.937Z,24.000000
2022-08-23T19:25:27.112Z,24.000000
2022-08-23T19:30:28.302Z,24.000000
2022-08-23T19:35:26.956Z,24.000000
2022-08-23T19:40:27.139Z,24.000000
2022-08-23T19:45:27.230Z,24.000000
2022-08-23T19:50:38.987Z,24.000000
2022-08-23T19:55:51.173Z,24.000000
2022-08-23T20:00:27.102Z,23.941667
2022-08-23T20:05:26.957Z,23.900000
2022-08-23T20:10:27.001Z,23.900000
2022-08-23T20:15:27.360Z,23.900000
2022-08-23T20:20:26.990Z,23.900000
2022-08-23T20:25:27.004Z,23.900000
2022-08-23T20:30:26.911Z,23.861538
2022-08-23T20:35:27.084Z,23.800000
2022-08-23T20:40:27.123Z,23.709091
2022-08-23T20:45:26.998Z,23.675000
2022-08-23T20:50:27.027Z,23.600000
2022-08-23T20:55:27.656Z,23.600000
2022-08-23T21:00:27.103Z,23.600000
2022-08-23T21:05:27.381Z,23.600000
2022-08-23T21:10:27.363Z,23.591667
2022-08-23T21:15:27.250Z,23.500000
2022-08-23T21:20:27.085Z,23.500000
2022-08-23T21:25:27.337Z,23.400000
2022-08-23T21:30:27.076Z,23.400000
2022-08-23T21:35:39.100Z,23.400000
2022-08-23T21:40:27.442Z,23.446154
2022-08-23T21:45:41.548Z,23.450000
2022-08-23T21:50:28.659Z,23.500000
2022-08-23T21:55:36.094Z,23.500000
2022-08-23T22:00:27.149Z,23.600000
2022-08-23T22:05:27.175Z,23.600000
2022-08-23T22:10:27.376Z,23.580000
2022-08-23T22:15:27.148Z,23.500000
2022-08-23T22:20:39.409Z,23.500000
2022-08-23T22:25:51.084Z,23.500000
2022-08-23T22:30:27.038Z,23.500000
2022-08-23T22:35:27.223Z,23.400000
2022-08-23T22:40:27.317Z,23.390909
2022-08-23T22:45:27.207Z,23.300000
2022-08-23T22:50:27.148Z,23.300000
2022-08-23T22:55:27.201Z,23.300000
2022-08-23T23:00:27.176Z,23.300000
2022-08-23T23:05:29.183Z,23.390909
2022-08-23T23:10:27.266Z,23.400000
2022-08-23T23:15:27.124Z,23.400000
2022-08-23T23:20:27.162Z,23.400000
2022-08-23T23:25:39.209Z,23.400000
2022-08-23T23:30:27.268Z,23.400000
2022-08-23T23:35:27.391Z,23.400000
2022-08-23T23:40:27.379Z,23.400000
2022-08-23T23:45:28.608Z,23.400000
2022-08-23T23:50:27.423Z,23.400000
2022-08-23T23:55:27.287Z,23.400000
